ADDS METAR Data INFO
IDs: Format: Raw Decoded Include TAF

Data at: 0345 UTC 20 Feb 2018

K3R7 200335Z AUTO 13009KT 10SM SCT046 SCT050 SCT075 22/20 A3007 RMK AO2 T02150196
K3R7 200315Z AUTO 13007KT 10SM BKN046 BKN055 BKN075 22/20 A3007 RMK AO2 T02150196
K3R7 200255Z AUTO 14005KT 10SM SCT046 SCT075 22/20 A3007 RMK AO2 T02160196
K3R7 200235Z AUTO 14006KT 10SM SCT019 SCT049 BKN075 22/20 A3007 RMK AO2 T02180196
K3R7 200215Z AUTO 15004KT 10SM SCT049 BKN075 22/20 A3007 RMK AO2 T02200196
K3R7 200155Z AUTO 15005KT 10SM BKN075 22/20 A3007 RMK AO2 T02200195
K3R7 200135Z AUTO 15006G14KT 10SM BKN050 OVC075 23/19 A3006 RMK AO2 T02250194
K3R7 200115Z AUTO 15008KT 10SM BKN048 OVC075 23/19 A3006 RMK AO2 T02260192
K3R7 200055Z AUTO 15006KT 10SM SCT048 BKN075 23/19 A3006 RMK AO2 T02270190
K3R7 200035Z AUTO 15009G15KT 10SM SCT046 23/19 A3006 RMK AO2 T02300186
K3R7 200015Z AUTO 16011KT 10SM SCT028 BKN044 BKN049 24/18 A3006 RMK AO2 T02350183
K3R7 192355Z AUTO 15011G20KT 10SM SCT030 BKN038 OVC050 24/18 A3006 RMK AO2 T02400180 10264 20240
K3R7 192335Z AUTO 17007G15KT 10SM SCT032 SCT039 BKN075 24/18 A3006 RMK AO2 T02410177
K3R7 192315Z AUTO 17012G19KT 10SM SCT034 SCT075 25/17 A3006 RMK AO2 T02490172
K3R7 192255Z AUTO 15015G22KT 10SM SCT075 25/17 A3005 RMK AO2 T02510171
K3R7 192235Z AUTO 15014G20KT 10SM SCT075 25/18 A3005 RMK AO2 T02520175
K3R7 192215Z AUTO 17014G22KT 10SM CLR 25/18 A3005 RMK AO2 T02530178
K3R7 192155Z AUTO 17013G19KT 10SM SCT046 SCT050 26/18 A3005 RMK AO2 T02550180
K3R7 192135Z AUTO 17015G20KT 10SM SCT031 SCT045 SCT050 26/18 A3005 RMK AO2 T02560178
K3R7 192115Z AUTO 18012G17KT 10SM SCT033 SCT039 BKN060 25/18 A3005 RMK AO2 T02530183
K3R7 192055Z AUTO 16013G18KT 10SM SCT031 BKN038 BKN048 26/18 A3005 RMK AO2 T02560182
K3R7 192035Z AUTO 16015G20KT 10SM BKN031 BKN040 BKN049 26/18 A3005 RMK AO2 T02590183
K3R7 192015Z AUTO 17015G24KT 10SM SCT031 BKN040 BKN049 26/19 A3005 RMK AO2 T02560185
K3R7 191955Z AUTO 17015G22KT 10SM SCT029 BKN039 BKN047 26/19 A3006 RMK AO2 T02590187
K3R7 191935Z AUTO 17016G20KT 10SM SCT029 BKN034 OVC065 26/19 A3007 RMK AO2 T02600187
K3R7 191915Z AUTO 18015G20KT 10SM SCT030 BKN038 OVC065 26/19 A3007 RMK AO2 T02580187
K3R7 191855Z AUTO 18014G21KT 10SM BKN038 BKN048 BKN055 26/18 A3008 RMK AO2 T02580178
K3R7 191835Z AUTO 17013G18KT 10SM SCT032 SCT041 BKN046 26/18 A3009 RMK AO2 T02610178
K3R7 191815Z AUTO 17016G23KT 10SM SCT029 BKN037 BKN050 25/18 A3010 RMK AO2 T02530182
K3R7 191755Z AUTO 16014G19KT 10SM BKN027 BKN033 BKN043 25/19 A3010 RMK AO2 T02530187 10258 20189
K3R7 191735Z AUTO 16011G21KT 10SM BKN025 BKN029 BKN038 25/19 A3011 RMK AO2 T02490187
K3R7 191715Z AUTO 17012G17KT 10SM BKN025 OVC039 25/19 A3011 RMK AO2 T02450193
K3R7 191655Z AUTO 17011G17KT 10SM BKN022 BKN027 OVC041 24/19 A3011 RMK AO2 T02440191
K3R7 191635Z AUTO 18012G21KT 10SM BKN021 BKN029 24/19 A3011 RMK AO2 T02370188
K3R7 191615Z AUTO 17011G16KT 10SM BKN019 OVC032 24/19 A3011 RMK AO2 T02350193
K3R7 191555Z AUTO 16009G14KT 10SM BKN019 23/19 A3011 RMK AO2 T02300193
K3R7 191535Z AUTO 17011G17KT 10SM SCT015 23/19 A3011 RMK AO2 T02290192
K3R7 191515Z AUTO 16008KT 130V190 10SM SCT013 23/20 A3010 RMK AO2 T02250195
K3R7 191455Z AUTO 15007KT 10SM SCT009 SCT016 22/20 A3010 RMK AO2 T02190197
K3R7 191435Z AUTO 15005KT 10SM SCT009 21/20 A3010 RMK AO2 T02130196
K3R7 191415Z AUTO 16007KT 10SM CLR 21/19 A3010 RMK AO2 T02060193
K3R7 191355Z AUTO 15007KT 10SM SCT022 20/19 A3009 RMK AO2 T01990191
K3R7 191335Z AUTO 14005KT 7SM SCT005 SCT024 19/19 A3009 RMK AO2 T01920188
K3R7 191315Z AUTO 15005KT 7SM SCT005 SCT026 19/19 A3008 RMK AO2 T01900186
K3R7 191255Z AUTO 14007KT 7SM BKN005 OVC026 19/19 A3008 RMK AO2 T01900185
K3R7 191235Z AUTO 14004KT 10SM OVC005 19/19 A3007 RMK AO2 T01900186
K3R7 191215Z AUTO 14006KT 10SM OVC005 19/19 A3007 RMK AO2 T01900186
K3R7 191155Z AUTO 14005KT 10SM BKN005 19/19 A3007 RMK AO2 T01900186 10197 20190
K3R7 191135Z AUTO 14006KT 10SM BKN005 BKN022 19/19 A3006 RMK AO2 T01900185
K3R7 191115Z AUTO 15005KT 10SM SCT005 BKN024 BKN031 19/19 A3006 RMK AO2 T01900186
K3R7 191055Z AUTO 13006KT 10SM SCT005 BKN029 19/19 A3006 RMK AO2 T01900185
K3R7 191035Z AUTO 13005KT 10SM BKN031 19/19 A3006 RMK AO2 T01900185
K3R7 191015Z AUTO 14006KT 10SM BKN029 BKN035 19/19 A3006 RMK AO2 T01920185
K3R7 190955Z AUTO 14006KT 10SM BKN029 BKN036 19/19 A3006 RMK AO2 T01920185
K3R7 190935Z AUTO 14007KT 10SM BKN029 19/19 A3006 RMK AO2 T01930185
K3R7 190915Z AUTO 15007KT 10SM BKN029 OVC033 20/19 A3006 RMK AO2 T01950185
K3R7 190855Z AUTO 15006KT 10SM BKN029 20/19 A3006 RMK AO2 T01950185
K3R7 190835Z AUTO 15006KT 10SM SCT031 20/19 A3007 RMK AO2 T01950186
K3R7 190815Z AUTO 15007KT 10SM SCT008 BKN031 20/19 A3007 RMK AO2 T01950186
K3R7 190755Z AUTO 15006KT 10SM BKN008 BKN026 BKN031 20/19 A3007 RMK AO2 T01960188
K3R7 190735Z AUTO 14005KT 10SM BKN008 BKN026 20/19 A3007 RMK AO2 T01960188
K3R7 190715Z AUTO 14006KT 10SM BKN008 BKN019 OVC028 20/19 A3007 RMK AO2 T01970188
K3R7 190655Z AUTO 15006KT 10SM OVC008 20/19 A3008 RMK AO2 T01960187
K3R7 190635Z AUTO 14007KT 10SM SCT008 20/19 A3009 RMK AO2 T01950185
K3R7 190615Z AUTO 15009G14KT 10SM SCT008 SCT024 SCT030 20/19 A3009 RMK AO2 T01960186
K3R7 190555Z AUTO 15007KT 10SM SCT008 SCT021 BKN032 20/19 A3009 RMK AO2 T01960186 10220 20195 402450150
K3R7 190535Z AUTO 16007KT 10SM BKN008 BKN021 OVC033 20/19 A3009 RMK AO2 T01970188
K3R7 190515Z AUTO 15006KT 10SM BKN008 BKN019 20/19 A3009 RMK AO2 T01950188
K3R7 190455Z AUTO 15007KT 10SM SCT008 20/19 A3009 RMK AO2 T01950188
K3R7 190435Z AUTO 15005KT 10SM CLR 20/19 A3009 RMK AO2 T01960188
K3R7 190415Z AUTO 14006KT 10SM CLR 20/19 A3009 RMK AO2 T01970187
K3R7 190355Z AUTO 15005KT 10SM SCT033 20/19 A3010 RMK AO2 T02000188
K3R7 190335Z AUTO 15007KT 10SM SCT016 SCT022 BKN033 20/19 A3010 RMK AO2 T02020190
K3R7 190315Z AUTO 15006KT 10SM SCT016 BKN022 BKN030 20/19 A3010 RMK AO2 T02030191
K3R7 190255Z AUTO 14004KT 10SM SCT016 SCT024 BKN032 20/19 A3010 RMK AO2 T02020192
K3R7 190235Z AUTO 16003KT 10SM SCT021 OVC032 21/19 A3010 RMK AO2 T02050192
K3R7 190215Z AUTO 17005KT 10SM SCT022 OVC030 21/19 A3010 RMK AO2 T02050191
K3R7 190155Z AUTO 16005KT 10SM SCT020 BKN028 21/19 A3010 RMK AO2 T02050190
K3R7 190135Z AUTO 16005KT 10SM SCT020 SCT026 SCT032 21/19 A3010 RMK AO2 T02060188
K3R7 190115Z AUTO 17004KT 10SM SCT022 SCT028 SCT034 21/19 A3010 RMK AO2 T02070188
K3R7 190055Z AUTO 17005KT 10SM SCT019 SCT024 BKN033 21/19 A3010 RMK AO2 T02100187
K3R7 190035Z AUTO 17004KT 10SM CLR 21/19 A3010 RMK AO2 T02110187
K3R7 190015Z AUTO 19005KT 10SM CLR 22/19 A3010 RMK AO2 T02160185
K3R7 182355Z AUTO 18007KT 10SM CLR 22/18 A3010 RMK AO2 T02210182 10245 20204
K3R7 182335Z AUTO 19005KT 10SM CLR 23/19 A3010 RMK AO2 T02250185
K3R7 182315Z AUTO 19006KT 10SM CLR 23/19 A3010 RMK AO2 T02310187
K3R7 182255Z AUTO 19007KT 10SM CLR 23/19 A3010 RMK AO2 T02310185
K3R7 182235Z AUTO 20008KT 10SM SCT022 SCT030 SCT039 24/19 A3010 RMK AO2 T02420186
K3R7 182215Z AUTO 19007KT 10SM SCT022 25/19 A3010 RMK AO2 T02450185
K3R7 182155Z AUTO 19008KT 10SM CLR 24/19 A3010 RMK AO2 T02430185
K3R7 182135Z AUTO 19008KT 10SM CLR 24/18 A3010 RMK AO2 T02380182
K3R7 182115Z AUTO 21010KT 170V230 10SM CLR 24/19 A3010 RMK AO2 T02430186
K3R7 182055Z AUTO 21007KT 10SM SCT023 SCT027 SCT033 24/19 A3010 RMK AO2 T02410189
K3R7 182035Z AUTO 22008KT 190V250 10SM BKN021 BKN026 BKN034 24/19 A3011 RMK AO2 T02370189
K3R7 182015Z AUTO 19005KT 10SM SCT021 BKN031 23/18 A3012 RMK AO2 T02300182
K3R7 181955Z AUTO 20008KT 10SM BKN019 BKN026 OVC033 24/19 A3012 RMK AO2 T02400187
K3R7 181935Z AUTO 19007KT 10SM BKN019 OVC029 23/19 A3013 RMK AO2 T02270185
K3R7 181915Z AUTO 20006KT 10SM BKN021 BKN027 OVC035 23/19 A3014 RMK AO2 T02250185
K3R7 181855Z AUTO 17005KT 10SM BKN013 BKN023 OVC035 23/19 A3015 RMK AO2 T02290185
K3R7 181835Z AUTO 11005KT 10SM OVC011 21/18 A3016 RMK AO2 T02100182
K3R7 181815Z AUTO 11006KT 10SM OVC009 21/18 A3017 RMK AO2 T02050180
K3R7 181755Z AUTO 11007KT 10SM OVC007 21/18 A3017 RMK AO2 T02050178 10205 20150
K3R7 181735Z AUTO 10007KT 10SM OVC007 19/17 A3018 RMK AO2 T01940174
K3R7 181715Z AUTO 12005KT 10SM OVC007 19/17 A3019 RMK AO2 T01920172
K3R7 181655Z AUTO 13005KT 10SM OVC007 19/17 A3020 RMK AO2 T01900170
K3R7 181635Z AUTO 09005KT 10SM OVC005 18/17 A3020 RMK AO2 T01820165
K3R7 181615Z AUTO 09003KT 10SM OVC003 18/17 A3020 RMK AO2 T01790165
K3R7 181555Z AUTO 09005KT 10SM OVC003 17/16 A3020 RMK AO2 T01710160